Ripley, Michigan
Current Conditions -  °F | °C
As of 8:53 PM on Thursday 18 Dec 2014 (Local Time) from KCMX Reporting Station
Clear Clear  
Wind Chill:   Ceiling: Unl
Heat Index:   Visibility: 10mi
Dew Point:   Wind: 3mph
Humidity: 96%   Direction: 10°N
Pressure: 30.24"   Gusts: NA
Location:  47.1715°N, 88.5503°W
Report Text: KCMX 190153Z AUTO 01003KT 10SM CLR M14/M14 A3024 RMK AO2 SLP271 T11391144
Loading
Personal Weather Stations






























Interactive Weather Map New forecast layout! Learn more

10-Day Weather Forecast

Advertisements
Track Severe Weather on mobile